createdAt,value
2023-01-05T00:02:24.877Z,12.40
2023-01-05T00:07:27.332Z,12.40
2023-01-05T00:12:29.581Z,12.40
2023-01-05T00:17:33.061Z,12.40
2023-01-05T00:22:40.821Z,12.30
2023-01-05T00:27:44.864Z,12.30
2023-01-05T00:32:51.142Z,12.30
2023-01-05T00:37:53.396Z,12.30
2023-01-05T00:42:55.601Z,12.30
2023-01-05T00:47:59.420Z,12.20
2023-01-05T00:53:01.488Z,12.20
2023-01-05T00:58:03.543Z,12.20
2023-01-05T01:03:07.054Z,12.20
2023-01-05T01:08:09.173Z,12.20
2023-01-05T01:13:11.268Z,12.10
2023-01-05T01:18:14.895Z,12.10
2023-01-05T01:23:16.986Z,12.10
2023-01-05T01:28:19.170Z,12.10
2023-01-05T01:33:22.789Z,12.10
2023-01-05T01:38:27.538Z,12.10
2023-01-05T01:43:51.552Z,12.20
2023-01-05T01:48:58.745Z,12.20
2023-01-05T01:54:05.169Z,12.20
2023-01-05T01:59:07.404Z,12.20
2023-01-05T02:04:11.941Z,12.20
2023-01-05T02:09:14.129Z,12.20
2023-01-05T02:14:26.459Z,12.20
2023-01-05T02:20:07.448Z,12.20
2023-01-05T02:25:30.132Z,12.20
2023-01-05T02:31:03.949Z,12.20
2023-01-05T02:36:15.873Z,12.20
2023-01-05T02:41:24.058Z,12.20
2023-01-05T02:46:27.855Z,12.20
2023-01-05T02:51:33.517Z,12.10
2023-01-05T02:56:40.551Z,12.10
2023-01-05T03:01:49.231Z,12.10
2023-01-05T03:06:54.631Z,12.10
2023-01-05T03:12:01.509Z,12.10
2023-01-05T03:17:08.336Z,12.10
2023-01-05T03:22:18.100Z,12.10
2023-01-05T03:27:20.506Z,12.10
2023-01-05T03:32:34.876Z,12.10
2023-01-05T03:37:40.755Z,12.10
2023-01-05T03:42:43.895Z,12.10
2023-01-05T03:47:47.424Z,12.20
2023-01-05T03:52:49.647Z,12.10
2023-01-05T03:57:51.943Z,12.10
2023-01-05T04:02:55.807Z,12.10
2023-01-05T04:07:58.353Z,12.10
2023-01-05T04:13:00.507Z,12.10
2023-01-05T04:18:04.285Z,12.10
2023-01-05T04:23:06.406Z,12.00
2023-01-05T04:28:08.490Z,12.10
2023-01-05T04:33:12.115Z,12.00
2023-01-05T04:38:14.211Z,12.00
2023-01-05T04:43:16.505Z,12.00
2023-01-05T04:48:20.090Z,11.90
2023-01-05T04:53:23.077Z,11.90
2023-01-05T04:58:25.303Z,12.00
2023-01-05T05:03:32.982Z,11.90
2023-01-05T05:08:35.595Z,11.90
2023-01-05T05:13:37.759Z,11.80
2023-01-05T05:18:41.315Z,11.80
2023-01-05T05:23:43.479Z,11.70
2023-01-05T05:28:45.572Z,11.70
2023-01-05T05:33:49.108Z,11.60
2023-01-05T05:38:51.698Z,11.60
2023-01-05T05:43:54.004Z,11.50
2023-01-05T05:48:58.455Z,11.50
2023-01-05T05:54:00.674Z,11.50
2023-01-05T05:59:05.624Z,11.50
2023-01-05T06:04:09.173Z,11.40
2023-01-05T06:09:11.295Z,11.40
2023-01-05T06:14:13.458Z,11.40
2023-01-05T06:19:16.985Z,11.40
2023-01-05T06:24:19.307Z,11.30
2023-01-05T06:29:21.603Z,11.30
2023-01-05T06:34:25.175Z,11.30
2023-01-05T06:39:27.302Z,11.30
2023-01-05T06:44:29.403Z,11.30
2023-01-05T06:49:32.933Z,11.30
2023-01-05T06:54:35.031Z,11.30
2023-01-05T06:59:37.202Z,11.20
2023-01-05T07:04:40.751Z,11.10
2023-01-05T07:09:43.231Z,11.00
2023-01-05T07:14:45.428Z,10.90
2023-01-05T07:19:49.009Z,10.80
2023-01-05T07:24:51.213Z,10.70
2023-01-05T07:29:53.398Z,10.60
2023-01-05T07:34:56.944Z,10.50
2023-01-05T07:39:59.214Z,10.50
2023-01-05T07:45:01.391Z,10.40
2023-01-05T07:50:05.846Z,10.30
2023-01-05T07:55:08.602Z,10.30
2023-01-05T08:00:11.520Z,10.20
2023-01-05T08:05:15.127Z,10.20
2023-01-05T08:10:17.364Z,10.10
2023-01-05T08:15:19.489Z,10.20
2023-01-05T08:20:23.103Z,10.50
2023-01-05T08:25:25.175Z,11.00
2023-01-05T08:30:27.434Z,11.50
2023-01-05T08:35:31.065Z,12.10
2023-01-05T08:40:33.216Z,12.60
2023-01-05T08:45:35.475Z,13.20
2023-01-05T08:50:39.079Z,13.70
2023-01-05T08:55:41.157Z,14.10
2023-01-05T09:00:43.351Z,14.50
2023-01-05T09:05:52.208Z,14.70
2023-01-05T09:10:54.364Z,15.00
2023-01-05T09:15:56.481Z,15.30
2023-01-05T09:21:00.106Z,15.40
2023-01-05T09:26:04.365Z,15.50
2023-01-05T09:31:11.030Z,15.60
2023-01-05T09:36:17.192Z,15.70
2023-01-05T09:41:23.081Z,15.80
2023-01-05T09:46:30.292Z,15.90
2023-01-05T09:51:34.026Z,16.00
2023-01-05T10:02:05.029Z,16.40
2023-01-05T10:07:18.593Z,16.50
2023-01-05T10:12:26.760Z,16.70
2023-01-05T10:17:43.301Z,16.80
2023-01-05T10:22:59.081Z,17.00
2023-01-05T10:28:14.284Z,17.20
2023-01-05T10:33:31.834Z,17.40
2023-01-05T10:38:50.478Z,17.70
2023-01-05T10:44:21.091Z,17.90
2023-01-05T10:49:28.520Z,17.90
2023-01-05T10:54:38.987Z,17.70
2023-01-05T10:59:58.857Z,17.40
2023-01-05T11:05:05.273Z,17.10
2023-01-05T11:10:21.333Z,16.90
2023-01-05T11:15:23.949Z,16.80
2023-01-05T11:20:28.282Z,16.50
2023-01-05T11:25:33.405Z,16.30
2023-01-05T11:30:36.024Z,16.20
2023-01-05T11:35:39.016Z,16.10
2023-01-05T11:40:44.382Z,15.90
2023-01-05T11:45:50.642Z,16.00
2023-01-05T11:50:55.321Z,16.00
2023-01-05T11:56:03.594Z,16.20
2023-01-05T12:01:33.143Z,16.30
2023-01-05T12:06:59.742Z,16.50
2023-01-05T12:12:20.993Z,16.60
2023-01-05T12:17:33.105Z,16.70
2023-01-05T12:23:15.103Z,16.80
2023-01-05T12:28:41.661Z,16.90
2023-01-05T12:34:05.076Z,16.80
2023-01-05T12:39:49.244Z,16.80
2023-01-05T12:45:32.822Z,16.90
2023-01-05T12:50:40.604Z,16.90
2023-01-05T12:55:46.973Z,16.90
2023-01-05T13:00:51.227Z,16.80
2023-01-05T13:06:02.590Z,16.80
2023-01-05T13:11:13.298Z,16.80
2023-01-05T13:16:21.441Z,16.80
2023-01-05T13:21:26.651Z,17.00
2023-01-05T13:26:32.824Z,17.30
2023-01-05T13:32:00.859Z,17.50
2023-01-05T13:37:26.614Z,17.70
2023-01-05T13:42:52.176Z,17.80
2023-01-05T13:48:33.966Z,17.50
2023-01-05T13:53:52.285Z,17.10
2023-01-05T13:59:00.361Z,16.70
2023-01-05T14:04:03.089Z,16.30
2023-01-05T14:09:09.294Z,16.00
2023-01-05T14:14:26.127Z,15.70
2023-01-05T14:19:51.779Z,15.40
2023-01-05T14:24:56.065Z,15.10
2023-01-05T14:30:02.756Z,14.70
2023-01-05T14:35:19.911Z,14.50
2023-01-05T14:40:34.120Z,14.30
2023-01-05T14:45:39.405Z,14.10
2023-01-05T14:50:42.584Z,14.00
2023-01-05T14:56:18.085Z,13.90
2023-01-05T15:01:25.603Z,13.80
2023-01-05T15:06:39.241Z,13.70
2023-01-05T15:12:03.442Z,13.60
2023-01-05T15:17:54.820Z,13.60
2023-01-05T15:23:11.299Z,13.50
2023-01-05T15:28:39.778Z,13.50
2023-01-05T15:33:46.460Z,13.40
2023-01-05T15:38:48.680Z,13.40
2023-01-05T15:43:52.789Z,13.40
2023-01-05T15:48:55.183Z,13.40
2023-01-05T15:53:59.361Z,13.30
2023-01-05T15:59:04.756Z,13.30
2023-01-05T16:04:09.804Z,13.30
2023-01-05T16:09:27.229Z,13.20
2023-01-05T16:14:35.555Z,13.20
2023-01-05T16:19:41.609Z,13.10
2023-01-05T16:24:51.688Z,13.00
2023-01-05T16:30:12.285Z,12.90
2023-01-05T16:35:33.849Z,12.80
2023-01-05T16:40:37.437Z,12.60
2023-01-05T16:45:43.370Z,12.60
2023-01-05T16:50:56.599Z,12.40
2023-01-05T16:56:00.719Z,12.30
2023-01-05T17:01:34.049Z,12.30
2023-01-05T17:06:36.143Z,12.20
2023-01-05T17:11:38.740Z,12.20
2023-01-05T17:16:42.429Z,12.10
2023-01-05T17:21:49.746Z,12.10
2023-01-05T17:26:52.527Z,12.10
2023-01-05T17:31:57.124Z,12.00
2023-01-05T17:37:00.759Z,12.00
2023-01-05T17:42:02.837Z,12.00
2023-01-05T17:47:06.481Z,12.00
2023-01-05T17:52:09.344Z,12.00
2023-01-05T17:57:12.998Z,12.00
2023-01-05T18:02:16.598Z,11.90
2023-01-05T18:07:18.725Z,11.90
2023-01-05T18:12:20.834Z,11.90
2023-01-05T18:17:24.458Z,11.90
2023-01-05T18:22:26.578Z,11.80
2023-01-05T18:27:28.702Z,11.90
2023-01-05T18:32:32.313Z,11.90
2023-01-05T18:37:36.860Z,11.80
2023-01-05T18:42:39.121Z,11.80
2023-01-05T18:47:43.982Z,11.80
2023-01-05T18:52:48.531Z,11.70
2023-01-05T18:57:50.791Z,11.60
2023-01-05T19:02:54.351Z,11.60
2023-01-05T19:07:56.564Z,11.60
2023-01-05T19:12:58.746Z,11.60
2023-01-05T19:18:03.067Z,11.60
2023-01-05T19:23:05.310Z,11.50
2023-01-05T19:28:08.859Z,11.60
2023-01-05T19:33:12.385Z,11.50
2023-01-05T19:38:14.521Z,11.50
2023-01-05T19:43:16.766Z,11.50
2023-01-05T19:48:22.460Z,11.50
2023-01-05T19:53:24.635Z,11.40
2023-01-05T19:58:26.740Z,11.40
2023-01-05T20:03:30.374Z,11.40
2023-01-05T20:08:32.748Z,11.30
2023-01-05T20:13:35.243Z,11.40
2023-01-05T20:18:41.112Z,11.40
2023-01-05T20:23:45.793Z,11.40
2023-01-05T20:28:49.223Z,11.40
2023-01-05T20:33:53.933Z,11.40
2023-01-05T20:38:57.786Z,11.50
2023-01-05T20:44:00.397Z,11.50
2023-01-05T20:49:05.517Z,11.50
2023-01-05T20:54:09.725Z,11.50
2023-01-05T20:59:14.799Z,11.60
2023-01-05T21:04:20.187Z,11.60
2023-01-05T21:09:27.251Z,11.60
2023-01-05T21:14:29.413Z,11.60
2023-01-05T21:19:32.951Z,11.60
2023-01-05T21:24:35.097Z,11.60
2023-01-05T21:29:38.173Z,11.60
2023-01-05T21:34:42.301Z,11.60
2023-01-05T21:39:44.678Z,11.60
2023-01-05T21:44:50.259Z,11.60
2023-01-05T21:49:53.893Z,11.60
2023-01-05T21:54:56.062Z,11.60
2023-01-05T21:59:58.247Z,11.60
2023-01-05T22:05:01.981Z,11.60
2023-01-05T22:10:04.638Z,11.60
2023-01-05T22:15:07.685Z,11.70
2023-01-05T22:20:12.851Z,11.70
2023-01-05T22:25:15.145Z,11.70
2023-01-05T22:30:17.357Z,11.70
2023-01-05T22:35:20.835Z,11.70
2023-01-05T22:40:23.021Z,11.80
2023-01-05T22:45:25.234Z,11.80
2023-01-05T22:50:28.778Z,11.90
2023-01-05T22:55:31.008Z,11.90
2023-01-05T23:00:33.134Z,11.90
2023-01-05T23:05:39.384Z,12.00
2023-01-05T23:10:41.512Z,12.10
2023-01-05T23:15:43.637Z,12.10
2023-01-05T23:20:52.556Z,12.10
2023-01-05T23:25:55.191Z,12.20
2023-01-05T23:30:58.823Z,12.20
2023-01-05T23:36:03.725Z,12.20
2023-01-05T23:41:08.384Z,12.30
2023-01-05T23:46:13.393Z,12.30
2023-01-05T23:51:17.701Z,12.30
2023-01-05T23:56:21.694Z,12.40
